createdAt,value
2022-08-21T00:01:34.073Z,82.32
2022-08-21T00:04:07.293Z,83.49
2022-08-21T00:06:34.075Z,84.80
2022-08-21T00:09:06.331Z,85.47
2022-08-21T00:11:35.236Z,86.31
2022-08-21T00:14:01.502Z,87.20
2022-08-21T00:16:27.570Z,88.75
2022-08-21T00:18:53.708Z,88.92
2022-08-21T00:21:19.578Z,89.63
2022-08-21T00:23:45.612Z,90.66
2022-08-21T00:26:11.701Z,90.88
2022-08-21T00:28:37.636Z,91.98
2022-08-21T00:31:04.175Z,91.09
2022-08-21T00:33:31.574Z,91.11
2022-08-21T00:35:57.945Z,92.74
2022-08-21T00:38:23.916Z,92.21
2022-08-21T00:41:02.750Z,92.03
2022-08-21T00:43:45.884Z,91.63
2022-08-21T00:46:11.742Z,92.34
2022-08-21T00:48:37.578Z,92.08
2022-08-21T00:51:11.652Z,92.24
2022-08-21T00:53:42.250Z,92.35
2022-08-21T00:56:10.463Z,92.30
2022-08-21T00:58:41.615Z,94.36
2022-08-21T01:01:09.979Z,94.07
2022-08-21T01:03:36.363Z,94.45
2022-08-21T01:06:04.500Z,94.90
2022-08-21T01:08:30.840Z,93.97
2022-08-21T01:10:57.301Z,94.15
2022-08-21T01:13:24.736Z,93.79
2022-08-21T01:15:52.980Z,94.12
2022-08-21T01:18:20.931Z,95.98
2022-08-21T01:21:00.715Z,96.98
2022-08-21T01:23:26.751Z,96.58
2022-08-21T01:25:52.654Z,95.90
2022-08-21T01:28:21.311Z,96.21
2022-08-21T01:30:48.905Z,95.86
2022-08-21T01:33:14.721Z,97.29
2022-08-21T01:35:40.615Z,98.13
2022-08-21T01:38:06.693Z,98.26
2022-08-21T01:40:32.822Z,97.86
2022-08-21T01:42:58.787Z,97.44
2022-08-21T01:45:24.776Z,96.82
2022-08-21T01:47:50.654Z,95.37
2022-08-21T01:50:19.120Z,96.28
2022-08-21T01:52:44.965Z,97.31
2022-08-21T01:55:13.185Z,97.25
2022-08-21T01:57:39.216Z,96.66
2022-08-21T02:00:09.105Z,96.62
2022-08-21T02:02:34.938Z,96.35
2022-08-21T02:05:00.795Z,94.99
2022-08-21T02:07:26.691Z,95.39
2022-08-21T02:09:52.478Z,95.65
2022-08-21T02:12:19.532Z,95.43
2022-08-21T02:14:45.335Z,95.04
2022-08-21T02:17:11.144Z,95.56
2022-08-21T02:19:40.444Z,95.69
2022-08-21T02:22:10.261Z,96.35
2022-08-21T02:24:54.517Z,95.81
2022-08-21T02:27:26.147Z,95.92
2022-08-21T02:29:52.405Z,96.33
2022-08-21T02:32:18.178Z,98.09
2022-08-21T02:34:43.973Z,97.04
2022-08-21T02:37:09.805Z,94.70
2022-08-21T02:39:35.638Z,95.12
2022-08-21T02:42:01.490Z,93.46
2022-08-21T02:44:30.158Z,93.45
2022-08-21T02:47:00.546Z,94.62
2022-08-21T02:49:26.370Z,95.70
2022-08-21T02:51:52.270Z,95.48
2022-08-21T02:54:18.104Z,95.37
2022-08-21T02:56:43.888Z,94.48
2022-08-21T02:59:09.706Z,95.08
2022-08-21T03:01:36.760Z,95.00
2022-08-21T03:04:02.726Z,95.41
2022-08-21T03:06:29.608Z,95.70
2022-08-21T03:08:55.462Z,95.52
2022-08-21T03:11:21.348Z,95.71
2022-08-21T03:13:47.355Z,96.09
2022-08-21T03:16:13.182Z,97.62
2022-08-21T03:18:39.238Z,96.73
2022-08-21T03:21:06.709Z,96.51
2022-08-21T03:23:32.946Z,95.33
2022-08-21T03:25:59.562Z,94.22
2022-08-21T03:28:25.717Z,93.70
2022-08-21T03:30:52.434Z,94.14
2022-08-21T03:33:20.656Z,95.67
2022-08-21T03:36:00.801Z,95.00
2022-08-21T03:38:29.736Z,95.12
2022-08-21T03:40:55.554Z,96.03
2022-08-21T03:43:21.680Z,94.95
2022-08-21T03:45:47.639Z,94.92
2022-08-21T03:48:13.581Z,94.06
2022-08-21T03:50:42.995Z,93.24
2022-08-21T03:53:16.595Z,93.77
2022-08-21T03:55:43.422Z,93.07
2022-08-21T03:58:16.058Z,94.28
2022-08-21T04:00:45.618Z,94.75
2022-08-21T04:03:11.537Z,94.82
2022-08-21T04:05:37.736Z,93.30
2022-08-21T04:08:05.438Z,92.26
2022-08-21T04:10:34.881Z,93.78
2022-08-21T04:13:01.120Z,95.71
2022-08-21T04:15:27.484Z,96.44
2022-08-21T04:17:53.806Z,96.14
2022-08-21T04:20:21.759Z,96.33
2022-08-21T04:22:48.650Z,96.80
2022-08-21T04:25:15.716Z,96.45
2022-08-21T04:27:42.599Z,95.55
2022-08-21T04:30:09.901Z,95.71
2022-08-21T04:32:37.822Z,95.89
2022-08-21T04:35:07.901Z,96.00
2022-08-21T04:37:33.957Z,95.03
2022-08-21T04:40:09.671Z,94.16
2022-08-21T04:42:46.679Z,93.44
2022-08-21T04:45:22.282Z,92.89
2022-08-21T04:47:53.155Z,93.05
2022-08-21T04:50:22.345Z,91.67
2022-08-21T04:52:48.489Z,91.64
2022-08-21T04:55:16.723Z,92.42
2022-08-21T04:57:48.823Z,92.46
2022-08-21T05:00:18.810Z,92.68
2022-08-21T05:02:46.013Z,91.46
2022-08-21T05:05:12.056Z,91.44
2022-08-21T05:07:42.744Z,91.27
2022-08-21T05:10:12.385Z,90.76
2022-08-21T05:12:39.751Z,89.99
2022-08-21T05:15:05.946Z,90.38
2022-08-21T05:17:32.025Z,89.69
2022-08-21T05:19:57.832Z,88.94
2022-08-21T05:22:24.600Z,89.46
2022-08-21T05:24:51.329Z,89.25
2022-08-21T05:27:17.808Z,88.05
2022-08-21T05:29:44.189Z,88.11
2022-08-21T05:32:12.065Z,86.89
2022-08-21T05:34:38.371Z,86.11
2022-08-21T05:37:07.695Z,86.03
2022-08-21T05:40:21.122Z,85.17
2022-08-21T05:42:19.530Z,84.31
2022-08-21T05:44:45.455Z,84.07
2022-08-21T05:47:11.956Z,83.10
2022-08-21T05:49:38.350Z,82.93
2022-08-21T05:52:04.714Z,83.49
2022-08-21T05:54:30.793Z,84.15
2022-08-21T05:56:57.461Z,82.71
2022-08-21T05:59:23.885Z,81.35
2022-08-21T06:01:52.774Z,81.66
2022-08-21T06:04:18.659Z,81.51
2022-08-21T06:06:44.465Z,81.28
2022-08-21T06:09:10.506Z,81.90
2022-08-21T06:11:36.511Z,82.63
2022-08-21T06:14:02.486Z,82.29
2022-08-21T06:16:29.390Z,83.40
2022-08-21T06:18:59.465Z,82.82
2022-08-21T06:21:27.987Z,82.14
2022-08-21T06:23:53.841Z,80.93
2022-08-21T06:26:20.381Z,81.31
2022-08-21T06:28:46.911Z,81.36
2022-08-21T06:31:23.920Z,80.80
2022-08-21T06:33:50.630Z,81.22
2022-08-21T06:36:18.981Z,80.35
2022-08-21T06:38:51.103Z,81.11
2022-08-21T06:41:18.970Z,82.27
2022-08-21T06:43:50.817Z,80.29
2022-08-21T06:46:16.639Z,79.89
2022-08-21T06:48:42.484Z,80.68
2022-08-21T06:51:08.329Z,81.25
2022-08-21T06:53:34.348Z,80.31
2022-08-21T06:56:00.195Z,79.35
2022-08-21T06:58:26.171Z,78.99
2022-08-21T07:00:52.067Z,79.04
2022-08-21T07:03:39.820Z,78.36
2022-08-21T07:06:08.104Z,77.50
2022-08-21T07:08:35.034Z,77.25
2022-08-21T07:11:07.196Z,76.09
2022-08-21T07:13:33.311Z,76.44
2022-08-21T07:16:03.638Z,75.88
2022-08-21T07:18:30.016Z,77.72
2022-08-21T07:20:56.082Z,76.65
2022-08-21T07:23:33.762Z,76.20
2022-08-21T07:26:00.799Z,74.97
2022-08-21T07:28:27.847Z,75.77
2022-08-21T07:30:56.180Z,76.17
2022-08-21T07:33:22.489Z,76.23
2022-08-21T07:35:48.347Z,75.20
2022-08-21T07:38:14.187Z,75.13
2022-08-21T07:40:39.990Z,75.33
2022-08-21T07:43:05.900Z,75.52
2022-08-21T07:45:32.365Z,77.40
2022-08-21T07:47:58.233Z,78.33
2022-08-21T07:50:24.696Z,77.33
2022-08-21T07:52:51.293Z,77.45
2022-08-21T07:55:20.106Z,77.99
2022-08-21T07:57:47.048Z,76.87
2022-08-21T08:00:16.380Z,75.45
2022-08-21T08:02:45.957Z,74.45
2022-08-21T08:05:12.424Z,73.71
2022-08-21T08:07:39.156Z,72.94
2022-08-21T08:10:07.331Z,73.09
2022-08-21T08:12:34.824Z,75.23
2022-08-21T08:15:02.685Z,74.35
2022-08-21T08:17:28.724Z,73.65
2022-08-21T08:19:55.628Z,73.07
2022-08-21T08:22:26.074Z,71.83
2022-08-21T08:24:53.057Z,72.67
2022-08-21T08:27:19.784Z,72.96
2022-08-21T08:29:46.339Z,73.66
2022-08-21T08:32:12.804Z,73.27
2022-08-21T08:34:40.074Z,74.97
2022-08-21T08:37:08.558Z,73.67
2022-08-21T08:39:34.592Z,73.04
2022-08-21T08:42:33.433Z,73.65
2022-08-21T08:45:06.921Z,73.91
2022-08-21T08:47:39.824Z,72.57
2022-08-21T08:50:28.265Z,71.63
2022-08-21T08:53:02.305Z,72.55
2022-08-21T08:55:35.469Z,71.78
2022-08-21T08:58:02.957Z,71.98
2022-08-21T09:00:29.501Z,71.11
2022-08-21T09:02:59.031Z,71.47
2022-08-21T09:05:40.420Z,71.41
2022-08-21T09:08:35.104Z,71.54
2022-08-21T09:11:03.357Z,71.78
2022-08-21T09:13:47.577Z,70.82
2022-08-21T09:16:42.497Z,69.49
2022-08-21T09:19:33.227Z,67.60
2022-08-21T09:22:08.964Z,67.21
2022-08-21T09:25:08.230Z,67.47
2022-08-21T09:27:34.644Z,68.01
2022-08-21T09:30:00.670Z,66.42
2022-08-21T09:32:36.754Z,68.25
2022-08-21T09:35:16.102Z,67.84
2022-08-21T09:37:52.135Z,66.53
2022-08-21T09:40:43.526Z,65.30
2022-08-21T09:43:12.865Z,64.69
2022-08-21T09:45:42.206Z,63.75
2022-08-21T09:48:13.901Z,63.38
2022-08-21T09:50:40.397Z,62.55
2022-08-21T09:53:17.382Z,63.55
2022-08-21T09:56:15.511Z,63.77
2022-08-21T09:58:45.032Z,61.37
2022-08-21T10:01:23.496Z,61.61
2022-08-21T10:04:03.690Z,58.33
2022-08-21T10:06:29.652Z,58.55
2022-08-21T10:09:19.863Z,58.26
2022-08-21T10:12:01.191Z,56.49
2022-08-21T10:15:00.616Z,57.56
2022-08-21T10:17:55.101Z,57.37
2022-08-21T10:20:38.037Z,59.31
2022-08-21T10:23:14.422Z,59.03
2022-08-21T10:26:13.157Z,58.95
2022-08-21T10:29:06.696Z,58.90
2022-08-21T10:31:47.040Z,58.01
2022-08-21T10:34:38.928Z,54.78
2022-08-21T10:37:23.153Z,53.89
2022-08-21T10:40:06.051Z,52.59
2022-08-21T10:42:52.570Z,51.47
2022-08-21T10:45:21.271Z,50.74
2022-08-21T10:47:58.013Z,50.23
2022-08-21T10:50:50.689Z,49.48
2022-08-21T10:53:17.123Z,48.70
2022-08-21T10:56:12.168Z,48.59
2022-08-21T10:58:45.646Z,48.12
2022-08-21T11:01:34.157Z,47.28
2022-08-21T11:04:49.183Z,45.08
2022-08-21T11:07:26.594Z,45.48
2022-08-21T11:10:01.879Z,44.91
2022-08-21T11:12:41.130Z,47.12
2022-08-21T11:15:28.961Z,45.96
2022-08-21T11:18:23.949Z,44.84
2022-08-21T11:21:05.331Z,43.90
2022-08-21T11:23:41.677Z,43.48
2022-08-21T11:26:19.211Z,44.40
2022-08-21T11:28:56.061Z,44.06
2022-08-21T11:31:38.464Z,42.22
2022-08-21T11:34:35.532Z,41.16
2022-08-21T11:37:22.327Z,40.65
2022-08-21T11:39:50.850Z,41.08
2022-08-21T11:42:24.411Z,39.95
2022-08-21T11:45:09.212Z,39.65
2022-08-21T11:48:06.292Z,38.52
2022-08-21T11:50:35.605Z,36.92
2022-08-21T11:53:09.474Z,37.22
2022-08-21T11:55:57.352Z,37.23
2022-08-21T11:58:29.804Z,36.63
2022-08-21T12:01:01.238Z,36.77
2022-08-21T12:03:31.182Z,35.19
2022-08-21T12:05:58.787Z,35.40
2022-08-21T12:08:29.524Z,35.26
2022-08-21T12:11:17.031Z,35.65
2022-08-21T12:14:07.467Z,36.81
2022-08-21T12:16:35.152Z,36.58
2022-08-21T12:19:07.233Z,36.66
2022-08-21T12:21:33.897Z,38.56
2022-08-21T12:24:05.841Z,39.48
2022-08-21T12:26:59.669Z,37.89
2022-08-21T12:29:37.492Z,38.07
2022-08-21T12:32:20.586Z,37.80
2022-08-21T12:34:55.908Z,37.42
2022-08-21T12:37:47.760Z,37.43
2022-08-21T12:40:30.203Z,38.42
2022-08-21T12:42:59.384Z,38.36
2022-08-21T12:45:33.034Z,38.65
2022-08-21T12:48:14.594Z,37.62
2022-08-21T12:51:00.810Z,36.87
2022-08-21T12:53:48.101Z,35.89
2022-08-21T12:56:18.012Z,34.03
2022-08-21T12:58:52.575Z,33.76
2022-08-21T13:01:41.721Z,34.14
2022-08-21T13:04:13.888Z,35.55
2022-08-21T13:06:50.206Z,33.54
2022-08-21T13:09:20.670Z,32.01
2022-08-21T13:11:49.672Z,31.79
2022-08-21T13:14:29.399Z,34.17
2022-08-21T13:16:58.949Z,34.84
2022-08-21T13:19:25.889Z,34.24
2022-08-21T13:21:52.864Z,33.99
2022-08-21T13:27:39.549Z,34.85
2022-08-21T13:30:13.114Z,33.71
2022-08-21T13:32:48.894Z,33.69
2022-08-21T13:35:17.187Z,33.08
2022-08-21T13:37:44.908Z,33.61
2022-08-21T13:40:15.167Z,33.44
2022-08-21T13:42:44.289Z,33.81
2022-08-21T13:45:23.453Z,35.25
2022-08-21T13:47:49.959Z,34.19
2022-08-21T13:50:18.429Z,34.89
2022-08-21T13:52:55.303Z,34.13
2022-08-21T13:55:25.162Z,33.49
2022-08-21T13:58:02.126Z,33.67
2022-08-21T14:00:30.950Z,33.64
2022-08-21T14:03:06.119Z,34.14
2022-08-21T14:05:35.628Z,34.38
2022-08-21T14:08:22.970Z,35.47
2022-08-21T14:10:57.707Z,33.95
2022-08-21T14:13:29.791Z,34.73
2022-08-21T14:15:59.599Z,34.57
2022-08-21T14:18:26.269Z,34.74
2022-08-21T14:21:03.575Z,34.41
2022-08-21T14:23:29.547Z,34.21
2022-08-21T14:26:00.843Z,34.26
2022-08-21T14:28:34.121Z,34.50
2022-08-21T14:31:13.313Z,34.78
2022-08-21T14:33:39.193Z,36.54
2022-08-21T14:36:05.435Z,36.70
2022-08-21T14:38:32.702Z,37.19
2022-08-21T14:41:08.734Z,37.00
2022-08-21T14:43:34.593Z,37.42
2022-08-21T14:46:00.995Z,37.57
2022-08-21T14:48:26.954Z,38.09
2022-08-21T14:50:55.949Z,37.94
2022-08-21T14:53:24.297Z,36.13
2022-08-21T14:56:05.464Z,35.81
2022-08-21T14:58:36.423Z,35.65
2022-08-21T15:01:04.221Z,36.50
2022-08-21T15:03:31.252Z,36.03
2022-08-21T15:05:57.531Z,37.37
2022-08-21T15:08:23.342Z,36.60
2022-08-21T15:11:10.484Z,36.52
2022-08-21T15:13:36.516Z,36.25
2022-08-21T15:16:02.474Z,35.08
2022-08-21T15:18:30.071Z,34.92
2022-08-21T15:20:56.127Z,34.11
2022-08-21T15:23:22.494Z,34.46
2022-08-21T15:25:49.505Z,33.73
2022-08-21T15:28:17.267Z,33.42
2022-08-21T15:30:44.189Z,33.11
2022-08-21T15:33:10.201Z,34.29
2022-08-21T15:35:38.120Z,35.36
2022-08-21T15:38:07.077Z,34.22
2022-08-21T15:40:38.432Z,34.37
2022-08-21T15:43:05.629Z,33.66
2022-08-21T15:45:33.079Z,32.58
2022-08-21T15:47:59.527Z,31.76
2022-08-21T15:50:26.572Z,32.61
2022-08-21T15:52:52.996Z,32.26
2022-08-21T15:55:21.002Z,30.85
2022-08-21T15:57:57.922Z,30.83
2022-08-21T16:00:24.962Z,31.07
2022-08-21T16:02:54.258Z,30.78
2022-08-21T16:05:20.917Z,31.54
2022-08-21T16:07:48.423Z,32.00
2022-08-21T16:10:16.678Z,32.24
2022-08-21T16:12:48.219Z,32.63
2022-08-21T16:15:20.131Z,32.63
2022-08-21T16:17:49.102Z,33.23
2022-08-21T16:20:26.373Z,31.91
2022-08-21T16:22:53.842Z,32.14
2022-08-21T16:25:21.116Z,32.24
2022-08-21T16:27:55.270Z,32.56
2022-08-21T16:30:26.181Z,33.25
2022-08-21T16:32:52.235Z,34.32
2022-08-21T16:35:20.228Z,34.79
2022-08-21T16:37:49.976Z,34.19
2022-08-21T16:40:18.511Z,33.77
2022-08-21T16:42:45.589Z,33.31
2022-08-21T16:45:14.487Z,33.19
2022-08-21T16:47:40.812Z,32.99
2022-08-21T16:50:08.256Z,33.85
2022-08-21T16:52:35.017Z,33.75
2022-08-21T16:55:01.288Z,33.86
2022-08-21T16:57:27.492Z,34.46
2022-08-21T16:59:53.691Z,34.67
2022-08-21T17:02:34.837Z,35.32
2022-08-21T17:07:28.416Z,35.90
2022-08-21T17:09:54.691Z,36.27
2022-08-21T17:12:20.962Z,36.09
2022-08-21T17:14:47.972Z,36.19
2022-08-21T17:17:14.411Z,34.70
2022-08-21T17:19:41.498Z,35.20
2022-08-21T17:22:08.732Z,35.60
2022-08-21T17:24:35.802Z,36.63
2022-08-21T17:27:03.958Z,37.01
2022-08-21T17:29:35.928Z,37.54
2022-08-21T17:32:03.236Z,38.70
2022-08-21T17:34:31.109Z,39.48
2022-08-21T17:36:57.781Z,41.29
2022-08-21T17:39:26.495Z,41.78
2022-08-21T17:41:57.781Z,42.88
2022-08-21T17:44:24.583Z,43.44
2022-08-21T17:46:50.454Z,43.60
2022-08-21T17:49:16.435Z,43.65
2022-08-21T17:51:42.581Z,43.83
2022-08-21T17:54:08.588Z,44.48
2022-08-21T17:56:36.430Z,44.14
2022-08-21T17:59:03.970Z,44.76
2022-08-21T18:01:33.884Z,44.69
2022-08-21T18:04:00.012Z,44.75
2022-08-21T18:06:26.263Z,44.70
2022-08-21T18:08:52.157Z,44.75
2022-08-21T18:11:23.679Z,44.85
2022-08-21T18:13:53.437Z,45.66
2022-08-21T18:16:20.336Z,45.44
2022-08-21T18:18:48.265Z,45.76
2022-08-21T18:21:15.007Z,45.78
2022-08-21T18:23:44.189Z,46.05
2022-08-21T18:26:14.191Z,46.64
2022-08-21T18:28:40.702Z,46.32
2022-08-21T18:31:10.150Z,46.59
2022-08-21T18:33:38.201Z,47.60
2022-08-21T18:36:04.834Z,47.91
2022-08-21T18:38:30.897Z,47.56
2022-08-21T18:40:58.878Z,48.22
2022-08-21T18:43:25.840Z,48.32
2022-08-21T18:45:51.848Z,48.82
2022-08-21T18:48:18.106Z,48.82
2022-08-21T18:50:45.801Z,48.52
2022-08-21T18:53:18.351Z,49.26
2022-08-21T18:55:54.090Z,50.46
2022-08-21T18:58:22.937Z,49.01
2022-08-21T19:00:50.510Z,50.91
2022-08-21T19:03:22.792Z,49.80
2022-08-21T19:05:51.688Z,50.59
2022-08-21T19:08:19.812Z,51.10
2022-08-21T19:10:47.734Z,51.71
2022-08-21T19:13:17.112Z,51.99
2022-08-21T19:15:46.251Z,51.53
2022-08-21T19:18:14.697Z,51.63
2022-08-21T19:20:41.475Z,51.37
2022-08-21T19:23:10.177Z,51.30
2022-08-21T19:25:41.889Z,51.43
2022-08-21T19:28:11.728Z,52.10
2022-08-21T19:30:45.937Z,53.14
2022-08-21T19:33:23.152Z,52.39
2022-08-21T19:35:51.068Z,53.20
2022-08-21T19:38:20.211Z,52.95
2022-08-21T19:40:46.376Z,52.84
2022-08-21T19:43:12.654Z,53.09
2022-08-21T19:45:38.507Z,53.85
2022-08-21T19:48:05.734Z,53.99
2022-08-21T19:50:31.704Z,53.82
2022-08-21T19:52:57.839Z,54.17
2022-08-21T19:55:24.162Z,54.43
2022-08-21T19:57:51.919Z,53.92
2022-08-21T20:00:17.739Z,54.39
2022-08-21T20:02:58.785Z,55.05
2022-08-21T20:05:24.757Z,56.14
2022-08-21T20:08:04.626Z,56.75
2022-08-21T20:10:30.508Z,56.25
2022-08-21T20:12:56.408Z,56.78
2022-08-21T20:15:22.470Z,56.15
2022-08-21T20:17:50.041Z,56.34
2022-08-21T20:20:16.105Z,56.46
2022-08-21T20:22:41.968Z,56.47
2022-08-21T20:25:08.146Z,56.63
2022-08-21T20:30:23.025Z,56.67
2022-08-21T20:32:49.168Z,57.47
2022-08-21T20:35:15.213Z,57.26
2022-08-21T20:37:41.451Z,57.39
2022-08-21T20:40:10.035Z,57.77
2022-08-21T20:42:41.453Z,57.36
2022-08-21T20:45:11.559Z,57.34
2022-08-21T20:47:38.153Z,56.83
2022-08-21T20:50:13.613Z,56.31
2022-08-21T20:52:41.736Z,56.64
2022-08-21T20:55:14.597Z,56.53
2022-08-21T20:58:05.930Z,57.41
2022-08-21T21:00:36.241Z,58.14
2022-08-21T21:03:34.794Z,58.03
2022-08-21T21:06:05.944Z,57.93
2022-08-21T21:08:51.881Z,57.29
2022-08-21T21:11:27.592Z,57.98
2022-08-21T21:14:03.428Z,56.61
2022-08-21T21:16:41.457Z,57.18
2022-08-21T21:19:36.999Z,56.84
2022-08-21T21:22:23.678Z,56.78
2022-08-21T21:25:03.797Z,55.43
2022-08-21T21:27:37.733Z,55.86
2022-08-21T21:30:12.106Z,54.07
2022-08-21T21:32:41.025Z,54.21
2022-08-21T21:35:07.866Z,54.77
2022-08-21T21:37:38.397Z,54.03
2022-08-21T21:40:22.940Z,54.27
2022-08-21T21:43:02.320Z,54.66
2022-08-21T21:45:40.035Z,55.06
2022-08-21T21:48:23.814Z,54.44
2022-08-21T21:51:00.849Z,55.54
2022-08-21T21:53:54.161Z,56.00
2022-08-21T21:56:40.666Z,54.77
2022-08-21T22:02:39.595Z,55.43
2022-08-21T22:05:16.846Z,54.77
2022-08-21T22:07:54.242Z,55.08
2022-08-21T22:10:49.130Z,55.69
2022-08-21T22:13:38.519Z,55.20
2022-08-21T22:16:05.836Z,55.59
2022-08-21T22:18:45.001Z,55.91
2022-08-21T22:21:19.136Z,56.50
2022-08-21T22:23:53.161Z,56.27
2022-08-21T22:26:26.327Z,55.85
2022-08-21T22:28:52.935Z,56.55
2022-08-21T22:31:30.799Z,56.22
2022-08-21T22:33:59.461Z,56.21
2022-08-21T22:36:30.242Z,56.53
2022-08-21T22:38:56.120Z,56.64
2022-08-21T22:41:28.815Z,56.44
2022-08-21T22:44:01.617Z,56.80
2022-08-21T22:46:41.490Z,56.52
2022-08-21T22:49:14.776Z,56.90
2022-08-21T22:51:45.875Z,57.31
2022-08-21T22:54:22.093Z,57.62
2022-08-21T22:56:58.392Z,57.67
2022-08-21T22:59:31.701Z,57.89
2022-08-21T23:02:19.361Z,58.49
2022-08-21T23:04:49.497Z,58.69
2022-08-21T23:07:43.060Z,58.04
2022-08-21T23:10:32.919Z,58.29
2022-08-21T23:16:15.772Z,58.79
2022-08-21T23:18:56.736Z,59.30
2022-08-21T23:21:27.754Z,59.07
2022-08-21T23:24:28.593Z,59.90
2022-08-21T23:27:14.145Z,59.99
2022-08-21T23:30:07.285Z,60.19
2022-08-21T23:32:47.065Z,59.54
2022-08-21T23:35:51.891Z,60.31
2022-08-21T23:38:50.579Z,63.30
2022-08-21T23:41:38.235Z,63.62
2022-08-21T23:44:15.325Z,63.87
2022-08-21T23:46:59.035Z,64.70
2022-08-21T23:49:54.719Z,65.14
2022-08-21T23:52:45.564Z,64.84
2022-08-21T23:55:32.364Z,66.27
2022-08-21T23:58:38.074Z,66.76
